createdAt,value
2019-02-02T00:03:44.967Z,1.99
2019-02-02T00:07:46.455Z,1.93
2019-02-02T00:11:47.809Z,1.97
2019-02-02T00:15:51.026Z,1.91
2019-02-02T00:19:52.161Z,1.77
2019-02-02T00:23:53.623Z,1.56
2019-02-02T00:27:55.847Z,1.36
2019-02-02T00:31:57.435Z,1.40
2019-02-02T00:36:01.269Z,1.37
2019-02-02T00:40:06.195Z,1.31
2019-02-02T00:44:07.564Z,1.28
2019-02-02T00:48:08.799Z,1.19
2019-02-02T00:52:09.988Z,1.09
2019-02-02T00:56:11.430Z,0.97
2019-02-02T01:00:18.399Z,0.94
2019-02-02T01:04:19.650Z,0.89
2019-02-02T01:08:21.045Z,0.77
2019-02-02T01:12:22.311Z,0.77
2019-02-02T01:16:23.663Z,0.66
2019-02-02T01:20:25.117Z,0.65
2019-02-02T01:24:26.368Z,0.61
2019-02-02T01:28:27.528Z,0.71
2019-02-02T01:32:28.807Z,0.72
2019-02-02T01:36:29.920Z,0.60
2019-02-02T01:40:31.083Z,0.51
2019-02-02T01:44:32.367Z,0.56
2019-02-02T01:48:33.631Z,0.37
2019-02-02T01:52:34.970Z,0.47
2019-02-02T01:56:36.185Z,0.36
2019-02-02T02:00:39.361Z,0.34
2019-02-02T02:04:40.514Z,0.36
2019-02-02T02:08:42.018Z,0.43
2019-02-02T02:12:43.306Z,0.41
2019-02-02T02:16:44.458Z,0.42
2019-02-02T02:20:45.749Z,0.58
2019-02-02T02:24:47.317Z,0.63
2019-02-02T02:28:48.670Z,0.74
2019-02-02T02:32:50.779Z,0.71
2019-02-02T02:36:51.998Z,0.64
2019-02-02T02:40:53.301Z,0.73
2019-02-02T02:44:55.668Z,0.73
2019-02-02T02:48:56.936Z,0.66
2019-02-02T02:52:58.182Z,0.73
2019-02-02T02:56:59.388Z,0.91
2019-02-02T03:01:02.456Z,1.01
2019-02-02T03:05:06.456Z,0.96
2019-02-02T03:09:08.953Z,0.82
2019-02-02T03:13:10.273Z,0.87
2019-02-02T03:17:11.452Z,0.91
2019-02-02T03:21:12.716Z,1.06
2019-02-02T03:25:24.521Z,1.16
2019-02-02T03:29:25.654Z,1.16
2019-02-02T03:33:26.898Z,1.10
2019-02-02T03:37:28.136Z,1.05
2019-02-02T03:41:29.330Z,0.98
2019-02-02T03:45:30.560Z,0.99
2019-02-02T03:49:31.891Z,1.05
2019-02-02T03:53:33.087Z,0.94
2019-02-02T03:57:34.240Z,0.94
2019-02-02T04:01:35.789Z,0.99
2019-02-02T04:05:36.962Z,1.17
2019-02-02T04:09:38.094Z,1.14
2019-02-02T04:13:39.246Z,1.14
2019-02-02T04:17:40.390Z,1.26
2019-02-02T04:21:41.592Z,1.18
2019-02-02T04:25:42.755Z,0.90
2019-02-02T04:29:43.859Z,0.93
2019-02-02T04:33:44.978Z,1.09
2019-02-02T04:37:46.195Z,1.03
2019-02-02T04:41:47.451Z,0.91
2019-02-02T04:45:48.635Z,0.95
2019-02-02T04:49:49.941Z,0.92
2019-02-02T04:53:51.218Z,0.85
2019-02-02T04:57:52.311Z,0.85
2019-02-02T05:01:53.711Z,0.84
2019-02-02T05:05:54.926Z,0.65
2019-02-02T05:09:56.061Z,0.56
2019-02-02T05:13:57.375Z,0.64
2019-02-02T05:17:58.597Z,0.64
2019-02-02T05:21:59.849Z,0.65
2019-02-02T05:26:01.842Z,0.62
2019-02-02T05:30:18.348Z,0.61
2019-02-02T05:34:19.831Z,0.53
2019-02-02T05:38:21.037Z,0.38
2019-02-02T05:42:22.279Z,0.48
2019-02-02T05:46:23.525Z,0.47
2019-02-02T05:50:24.936Z,0.46
2019-02-02T05:54:26.215Z,0.39
2019-02-02T05:58:27.518Z,0.41
2019-02-02T06:02:28.806Z,0.48
2019-02-02T06:06:30.104Z,0.55
2019-02-02T06:10:31.490Z,0.43
2019-02-02T06:14:32.847Z,0.43
2019-02-02T06:18:34.001Z,0.56
2019-02-02T06:22:35.134Z,0.44
2019-02-02T06:26:36.852Z,0.55
2019-02-02T06:30:39.133Z,0.48
2019-02-02T06:34:40.413Z,0.31
2019-02-02T06:38:41.858Z,0.31
2019-02-02T06:42:43.188Z,0.47
2019-02-02T06:46:44.385Z,0.53
2019-02-02T06:50:45.492Z,0.57
2019-02-02T06:54:46.757Z,0.37
2019-02-02T06:58:48.005Z,0.51
2019-02-02T07:02:49.915Z,0.36
2019-02-02T07:06:53.226Z,0.31
2019-02-02T07:10:54.283Z,0.38
2019-02-02T07:14:56.806Z,0.46
2019-02-02T07:18:57.919Z,0.59
2019-02-02T07:22:59.077Z,0.61
2019-02-02T07:27:00.208Z,0.37
2019-02-02T07:31:01.498Z,0.54
2019-02-02T07:35:04.974Z,0.54
2019-02-02T07:39:06.186Z,0.50
2019-02-02T07:43:08.357Z,0.56
2019-02-02T07:47:09.503Z,0.70
2019-02-02T07:51:10.653Z,0.86
2019-02-02T07:55:14.390Z,1.02
2019-02-02T07:59:16.635Z,1.18
2019-02-02T08:03:17.918Z,1.21
2019-02-02T08:07:19.327Z,1.20
2019-02-02T08:11:20.645Z,1.31
2019-02-02T08:15:24.956Z,1.60
2019-02-02T08:19:26.487Z,1.86
2019-02-02T08:23:27.856Z,1.86
2019-02-02T08:27:29.179Z,1.97
2019-02-02T08:31:30.834Z,2.01
2019-02-02T08:35:33.136Z,2.02
2019-02-02T08:39:34.385Z,2.25
2019-02-02T08:43:35.749Z,2.28
2019-02-02T08:47:37.090Z,2.65
2019-02-02T08:51:38.290Z,2.77
2019-02-02T08:55:39.545Z,2.69
2019-02-02T08:59:40.797Z,2.94
2019-02-02T09:03:42.021Z,2.97
2019-02-02T09:07:43.263Z,2.72
2019-02-02T09:11:44.979Z,2.97
2019-02-02T09:15:46.741Z,3.32
2019-02-02T09:19:48.258Z,3.76
2019-02-02T09:23:49.431Z,4.56
2019-02-02T09:27:50.764Z,5.12
2019-02-02T09:31:52.552Z,5.26
2019-02-02T09:35:54.071Z,5.34
2019-02-02T09:39:55.503Z,5.37
2019-02-02T09:43:56.966Z,5.49
2019-02-02T09:47:58.532Z,6.33
2019-02-02T09:51:59.924Z,7.84
2019-02-02T09:56:01.198Z,8.24
2019-02-02T10:00:06.165Z,8.79
2019-02-02T10:04:07.547Z,8.23
2019-02-02T10:08:08.817Z,8.23
2019-02-02T10:12:10.579Z,8.74
2019-02-02T10:16:11.784Z,8.86
2019-02-02T10:20:15.580Z,8.71
2019-02-02T10:24:16.791Z,9.02
2019-02-02T10:28:17.953Z,9.97
2019-02-02T10:32:19.097Z,10.56
2019-02-02T10:36:20.358Z,10.02
2019-02-02T10:40:22.178Z,10.29
2019-02-02T10:44:24.454Z,9.58
2019-02-02T10:48:26.196Z,8.59
2019-02-02T10:52:27.527Z,7.92
2019-02-02T10:56:28.905Z,6.57
2019-02-02T11:00:36.055Z,7.47
2019-02-02T11:04:37.438Z,8.16
2019-02-02T11:08:38.889Z,8.32
2019-02-02T11:12:40.631Z,8.61
2019-02-02T11:16:42.090Z,8.77
2019-02-02T11:20:43.954Z,7.71
2019-02-02T11:24:45.344Z,8.59
2019-02-02T11:28:47.183Z,9.23
2019-02-02T11:32:48.724Z,8.87
2019-02-02T11:36:49.865Z,8.22
2019-02-02T11:40:51.076Z,8.57
2019-02-02T11:44:52.333Z,9.10
2019-02-02T11:48:53.591Z,8.72
2019-02-02T11:52:54.863Z,8.72
2019-02-02T11:56:56.311Z,8.54
2019-02-02T12:00:57.577Z,9.01
2019-02-02T12:04:59.018Z,10.27
2019-02-02T12:09:00.630Z,11.14
2019-02-02T12:13:01.929Z,11.29
2019-02-02T12:17:03.402Z,11.41
2019-02-02T12:21:04.788Z,11.31
2019-02-02T12:25:06.464Z,11.09
2019-02-02T12:29:07.867Z,10.90
2019-02-02T12:33:09.224Z,10.95
2019-02-02T12:37:10.612Z,11.32
2019-02-02T12:41:11.892Z,11.22
2019-02-02T12:45:19.060Z,11.17
2019-02-02T12:49:20.456Z,11.08
2019-02-02T12:53:21.709Z,10.94
2019-02-02T12:57:23.206Z,11.17
2019-02-02T13:01:24.583Z,11.35
2019-02-02T13:05:25.962Z,11.34
2019-02-02T13:09:27.380Z,10.89
2019-02-02T13:13:28.535Z,10.78
2019-02-02T13:17:30.177Z,10.88
2019-02-02T13:21:31.384Z,10.96
2019-02-02T13:25:32.955Z,11.03
2019-02-02T13:29:34.925Z,11.06
2019-02-02T13:33:36.166Z,11.14
2019-02-02T13:37:37.641Z,11.30
2019-02-02T13:41:39.498Z,11.60
2019-02-02T13:45:41.245Z,11.24
2019-02-02T13:49:42.707Z,10.71
2019-02-02T13:53:44.203Z,10.52
2019-02-02T13:57:47.304Z,10.64
2019-02-02T14:01:48.579Z,10.70
2019-02-02T14:05:50.004Z,10.11
2019-02-02T14:09:51.249Z,10.04
2019-02-02T14:13:52.647Z,10.07
2019-02-02T14:17:53.878Z,9.88
2019-02-02T14:21:55.136Z,9.49
2019-02-02T14:25:56.532Z,9.62
2019-02-02T14:29:57.807Z,9.49
2019-02-02T14:33:59.115Z,9.22
2019-02-02T14:38:00.702Z,8.73
2019-02-02T14:42:01.879Z,8.85
2019-02-02T14:46:03.359Z,8.96
2019-02-02T14:50:10.593Z,9.15
2019-02-02T14:54:12.180Z,8.93
2019-02-02T14:58:13.858Z,8.79
2019-02-02T15:02:15.251Z,8.53
2019-02-02T15:06:16.510Z,8.53
2019-02-02T15:10:18.887Z,8.48
2019-02-02T15:14:20.294Z,8.47
2019-02-02T15:18:21.499Z,8.54
2019-02-02T15:22:22.841Z,8.51
2019-02-02T15:26:25.537Z,8.07
2019-02-02T15:30:29.272Z,7.93
2019-02-02T15:34:30.608Z,8.05
2019-02-02T15:38:31.853Z,7.96
2019-02-02T15:42:33.553Z,7.79
2019-02-02T15:46:34.893Z,7.57
2019-02-02T15:50:36.155Z,7.42
2019-02-02T15:54:37.305Z,7.34
2019-02-02T15:58:39.112Z,6.94
2019-02-02T16:02:40.587Z,6.47
2019-02-02T16:06:41.876Z,6.16
2019-02-02T16:10:43.241Z,5.94
2019-02-02T16:14:44.345Z,5.66
2019-02-02T16:18:45.849Z,5.45
2019-02-02T16:22:48.031Z,5.21
2019-02-02T16:26:49.468Z,5.04
2019-02-02T16:30:50.626Z,4.86
2019-02-02T16:34:52.110Z,4.64
2019-02-02T16:38:53.430Z,4.47
2019-02-02T16:42:54.967Z,4.41
2019-02-02T16:46:56.251Z,4.31
2019-02-02T16:50:57.508Z,4.26
2019-02-02T16:55:04.608Z,4.24
2019-02-02T16:59:10.615Z,4.34
2019-02-02T17:03:11.901Z,4.42
2019-02-02T17:07:13.149Z,4.52
2019-02-02T17:11:14.706Z,4.58
2019-02-02T17:15:17.045Z,4.61
2019-02-02T17:19:18.655Z,4.71
2019-02-02T17:23:20.180Z,4.81
2019-02-02T17:27:21.348Z,5.02
2019-02-02T17:31:24.570Z,5.21
2019-02-02T17:35:26.181Z,5.21
2019-02-02T17:39:27.605Z,5.18
2019-02-02T17:43:28.979Z,5.46
2019-02-02T17:47:30.246Z,5.52
2019-02-02T17:51:31.404Z,5.59
2019-02-02T17:55:32.816Z,5.67
2019-02-02T17:59:34.117Z,5.67
2019-02-02T18:03:35.248Z,5.55
2019-02-02T18:07:36.538Z,5.41
2019-02-02T18:11:39.343Z,5.36
2019-02-02T18:15:40.641Z,5.42
2019-02-02T18:19:42.030Z,5.42
2019-02-02T18:23:43.383Z,5.28
2019-02-02T18:27:45.058Z,5.22
2019-02-02T18:31:46.311Z,5.20
2019-02-02T18:35:47.588Z,5.21
2019-02-02T18:39:48.752Z,5.19
2019-02-02T18:43:50.102Z,5.18
2019-02-02T18:47:51.364Z,5.18
2019-02-02T18:51:53.316Z,5.06
2019-02-02T18:55:56.714Z,5.20
2019-02-02T18:59:58.273Z,5.15
2019-02-02T19:03:59.686Z,5.20
2019-02-02T19:08:01.064Z,5.01
2019-02-02T19:12:02.439Z,5.00
2019-02-02T19:16:03.944Z,4.99
2019-02-02T19:20:14.738Z,5.05
2019-02-02T19:24:16.257Z,5.11
2019-02-02T19:28:17.481Z,5.20
2019-02-02T19:32:19.083Z,5.21
2019-02-02T19:36:20.211Z,4.98
2019-02-02T19:40:21.468Z,5.02
2019-02-02T19:44:22.855Z,4.99
2019-02-02T19:48:24.410Z,5.04
2019-02-02T19:52:25.797Z,5.11
2019-02-02T19:56:27.060Z,5.13
2019-02-02T20:00:30.640Z,5.12
2019-02-02T20:04:32.081Z,5.15
2019-02-02T20:08:33.467Z,5.16
2019-02-02T20:12:34.717Z,5.17
2019-02-02T20:16:35.992Z,5.18
2019-02-02T20:20:37.725Z,5.12
2019-02-02T20:24:40.260Z,5.07
2019-02-02T20:28:41.549Z,4.95
2019-02-02T20:32:44.061Z,4.93
2019-02-02T20:36:45.851Z,5.04
2019-02-02T20:40:47.292Z,4.97
2019-02-02T20:44:48.810Z,4.91
2019-02-02T20:48:50.433Z,4.92
2019-02-02T20:52:52.116Z,4.87
2019-02-02T20:56:53.210Z,4.91
2019-02-02T21:00:54.487Z,4.88
2019-02-02T21:04:55.832Z,4.82
2019-02-02T21:08:59.090Z,4.83
2019-02-02T21:13:00.707Z,4.84
2019-02-02T21:17:01.953Z,4.84
2019-02-02T21:21:03.651Z,4.81
2019-02-02T21:25:07.741Z,4.81
2019-02-02T21:29:09.426Z,4.86
2019-02-02T21:33:11.116Z,4.85
2019-02-02T21:37:12.502Z,4.81
2019-02-02T21:41:13.946Z,4.76
2019-02-02T21:45:15.559Z,4.77
2019-02-02T21:49:16.974Z,4.81
2019-02-02T21:53:18.851Z,4.84
2019-02-02T21:57:20.240Z,4.85
2019-02-02T22:01:24.625Z,4.79
2019-02-02T22:05:26.139Z,4.75
2019-02-02T22:09:27.462Z,4.75
2019-02-02T22:13:28.742Z,4.78
2019-02-02T22:17:30.148Z,4.81
2019-02-02T22:21:31.419Z,4.99
2019-02-02T22:25:32.656Z,4.90
2019-02-02T22:29:34.011Z,4.86
2019-02-02T22:33:35.327Z,4.85
2019-02-02T22:37:36.456Z,4.84
2019-02-02T22:41:37.938Z,4.79
2019-02-02T22:45:39.144Z,4.85
2019-02-02T22:49:40.503Z,4.86
2019-02-02T22:53:41.883Z,4.82
2019-02-02T22:57:43.385Z,4.86
2019-02-02T23:01:44.660Z,4.90
2019-02-02T23:06:02.197Z,4.94
2019-02-02T23:10:19.237Z,4.96
2019-02-02T23:14:42.465Z,4.93
2019-02-02T23:18:46.797Z,4.89
2019-02-02T23:22:47.119Z,4.89
2019-02-02T23:26:48.251Z,4.87
2019-02-02T23:30:49.467Z,4.84
2019-02-02T23:34:50.933Z,4.76
2019-02-02T23:38:52.279Z,4.85
2019-02-02T23:42:53.444Z,4.81
2019-02-02T23:46:55.316Z,4.81
2019-02-02T23:50:56.590Z,4.72
2019-02-02T23:54:58.101Z,4.74
2019-02-02T23:58:59.477Z,4.67
